Time;durP1;ratioP1;P1;durP2;ratioP2;P2;SDS_P1;SDS_P2;PMS_P1;PMS_P2;Temp;Humidity;BMP_temperature;BMP_pressure;BME280_temperature;BME280_humidity;BME280_pressure;Samples;Min_cycle;Max_cycle;Signal;HPM_P1;HPM_P2
2021/03/20 00:01:29;;;;;;;9.47;5.10;;;4.10;74.30;;;;;;5070290;28;20318;-66
2021/03/20 00:03:55;;;;;;;7.03;4.90;;;4.10;74.40;;;;;;5069349;28;20291;-66
2021/03/20 00:06:26;;;;;;;8.43;4.83;;;4.10;74.30;;;;;;5070124;28;20298;-66
2021/03/20 00:08:53;;;;;;;9.27;5.07;;;4.10;74.20;;;;;;5070387;28;20372;-66
2021/03/20 00:11:20;;;;;;;10.47;5.23;;;4.10;74.30;;;;;;5069479;28;20663;-66
2021/03/20 00:13:46;;;;;;;6.40;4.90;;;4.20;74.20;;;;;;5070074;28;20775;-67
2021/03/20 00:16:12;;;;;;;5.70;4.90;;;4.20;74.00;;;;;;5070376;28;20303;-66
2021/03/20 00:18:38;;;;;;;7.20;4.43;;;4.20;73.80;;;;;;5069610;28;20517;-66
2021/03/20 00:21:05;;;;;;;6.23;3.90;;;4.20;73.60;;;;;;5070310;28;20377;-66
2021/03/20 00:23:31;;;;;;;7.83;4.23;;;4.10;73.80;;;;;;5070462;28;20846;-66
2021/03/20 00:25:56;;;;;;;7.90;4.93;;;4.00;74.10;;;;;;5069611;28;20397;-66
2021/03/20 00:28:25;;;;;;;6.73;4.50;;;3.90;74.60;;;;;;5069727;28;20055;-66
2021/03/20 00:30:56;;;;;;;6.13;4.27;;;3.80;75.10;;;;;;5069606;28;20128;-67
2021/03/20 00:33:22;;;;;;;8.45;4.43;;;3.70;75.40;;;;;;5068873;28;20802;-66
2021/03/20 00:35:49;;;;;;;6.47;3.77;;;3.70;75.70;;;;;;5069722;28;20045;-67
2021/03/20 00:38:15;;;;;;;8.27;4.20;;;3.80;75.60;;;;;;5068733;28;20378;-66
2021/03/20 00:40:42;;;;;;;7.10;4.30;;;3.70;75.50;;;;;;5068675;28;20302;-66
2021/03/20 00:43:08;;;;;;;6.37;4.00;;;3.70;75.60;;;;;;5069502;28;20811;-65
2021/03/20 00:45:34;;;;;;;6.97;4.10;;;3.60;75.60;;;;;;5069212;28;20329;-66
2021/03/20 00:48:21;;;;;;;5.33;3.90;;;3.60;75.70;;;;;;5068967;28;20056;-66
2021/03/20 00:50:47;;;;;;;5.63;4.00;;;3.60;75.60;;;;;;5069167;28;20052;-67
2021/03/20 00:53:13;;;;;;;6.60;4.17;;;3.60;75.50;;;;;;5068603;28;20398;-66
2021/03/20 00:55:38;;;;;;;7.27;4.60;;;3.60;75.50;;;;;;5069120;28;20386;-66
2021/03/20 00:58:24;;;;;;;6.37;4.03;;;3.60;75.50;;;;;;5069337;28;20052;-66
2021/03/20 01:00:52;;;;;;;7.17;4.30;;;3.60;75.40;;;;;;5073260;28;20373;-66
2021/03/20 01:03:18;;;;;;;5.37;3.40;;;3.70;75.60;;;;;;5089215;28;20302;-66
2021/03/20 01:05:44;;;;;;;6.70;4.23;;;3.70;75.40;;;;;;5089678;28;20782;-65
2021/03/20 01:08:10;;;;;;;6.20;4.03;;;3.70;75.40;;;;;;5088272;28;20294;-66
2021/03/20 01:10:36;;;;;;;7.27;4.03;;;3.70;75.40;;;;;;5089223;28;20083;-66
2021/03/20 01:13:02;;;;;;;5.23;4.17;;;3.70;75.40;;;;;;5089249;28;20337;-66
2021/03/20 01:15:27;;;;;;;6.03;3.87;;;3.70;75.40;;;;;;5088445;28;20093;-66
2021/03/20 01:17:53;;;;;;;6.53;3.73;;;3.80;75.30;;;;;;5088920;28;20040;-66
2021/03/20 01:20:18;;;;;;;15.77;4.40;;;3.70;75.00;;;;;;5088721;28;20043;-66
2021/03/20 01:22:44;;;;;;;5.17;3.83;;;3.60;75.00;;;;;;5088669;28;20048;-66
2021/03/20 01:25:11;;;;;;;7.10;4.93;;;3.50;75.30;;;;;;5088760;28;20060;-66
2021/03/20 01:27:37;;;;;;;7.23;3.83;;;3.50;75.40;;;;;;5088516;28;20048;-66
2021/03/20 01:30:22;;;;;;;7.47;4.67;;;3.50;75.50;;;;;;5088851;28;20680;-67
2021/03/20 01:32:47;;;;;;;7.73;4.33;;;3.50;75.40;;;;;;5089107;28;20381;-66
2021/03/20 01:35:13;;;;;;;5.93;4.20;;;3.60;75.40;;;;;;5088247;28;20377;-66
2021/03/20 01:37:39;;;;;;;7.13;4.50;;;3.60;75.10;;;;;;5088895;28;20516;-65
2021/03/20 01:40:07;;;;;;;9.87;4.27;;;3.70;75.00;;;;;;5089034;28;20048;-66
2021/03/20 01:42:33;;;;;;;8.97;4.60;;;3.70;74.80;;;;;;5088215;28;20305;-66
2021/03/20 01:45:06;;;;;;;8.20;5.07;;;3.70;74.70;;;;;;5088464;28;20377;-66
2021/03/20 01:47:31;;;;;;;9.77;4.60;;;3.70;74.30;;;;;;5088268;28;20351;-66
2021/03/20 01:49:58;;;;;;;6.67;4.97;;;3.70;74.20;;;;;;5088012;28;20314;-66
2021/03/20 01:52:28;;;;;;;7.47;5.67;;;3.70;74.20;;;;;;5088303;28;20055;-66
2021/03/20 01:55:15;;;;;;;9.13;6.17;;;3.70;74.40;;;;;;5088346;28;20337;-65
2021/03/20 01:57:46;;;;;;;10.37;6.30;;;3.70;74.30;;;;;;5087680;28;20310;-66
2021/03/20 02:00:21;;;;;;;11.05;5.82;;;3.60;74.40;;;;;;5088872;28;20309;-66
2021/03/20 02:02:47;;;;;;;14.23;8.30;;;3.50;74.40;;;;;;5087691;28;20454;-66
2021/03/20 02:05:18;;;;;;;12.67;8.13;;;3.60;74.40;;;;;;5088142;28;20306;-66
2021/03/20 02:07:44;;;;;;;11.15;6.65;;;3.60;74.30;;;;;;5088219;28;20493;-66
2021/03/20 02:10:10;;;;;;;12.50;7.20;;;3.60;74.40;;;;;;5087905;28;20147;-66
2021/03/20 02:12:40;;;;;;;10.97;8.07;;;3.50;74.40;;;;;;5088658;28;20454;-66
2021/03/20 02:15:21;;;;;;;15.17;9.10;;;3.50;74.60;;;;;;5088436;28;20306;-66
2021/03/20 02:18:02;;;;;;;14.02;8.25;;;3.40;74.70;;;;;;5087387;28;20298;-66
2021/03/20 02:20:54;;;;;;;9.83;6.47;;;3.40;74.80;;;;;;5104644;28;20514;-66
2021/03/20 02:24:08;;;;;;;13.87;8.53;;;3.50;74.70;;;;;;5088531;28;20362;-66
2021/03/20 02:26:58;;;;;;;13.43;8.03;;;3.50;74.50;;;;;;5088912;28;20302;-66
2021/03/20 02:30:01;;;;;;;14.73;8.53;;;3.50;74.60;;;;;;5087992;28;20386;-66
2021/03/20 02:32:48;;;;;;;13.40;8.23;;;3.50;74.40;;;;;;5087651;28;20306;-66
2021/03/20 02:35:22;;;;;;;13.30;7.83;;;3.50;74.40;;;;;;5087893;28;20326;-66
2021/03/20 02:38:12;;;;;;;11.33;8.27;;;3.50;74.50;;;;;;5087900;28;20351;-66
2021/03/20 02:41:12;;;;;;;12.70;8.63;;;3.50;74.50;;;;;;5088561;28;20659;-66
2021/03/20 02:44:13;;;;;;;10.83;6.93;;;3.40;74.40;;;;;;5087958;28;20298;-66
2021/03/20 02:46:43;;;;;;;8.23;6.20;;;3.40;74.60;;;;;;5087871;28;20309;-66
2021/03/20 02:49:43;;;;;;;9.65;7.22;;;3.30;74.90;;;;;;5087527;28;20947;-66
2021/03/20 02:52:12;;;;;;;7.97;6.33;;;3.30;74.90;;;;;;5087426;28;20072;-66
2021/03/20 02:55:18;;;;;;;8.23;6.40;;;3.20;75.20;;;;;;5088303;28;20313;-65
2021/03/20 02:57:56;;;;;;;9.00;6.87;;;3.10;75.40;;;;;;5085245;28;20300;-66
2021/03/20 03:00:28;;;;;;;8.90;6.83;;;3.10;76.50;;;;;;5088759;28;20363;-66
2021/03/20 03:02:56;;;;;;;8.88;6.18;;;3.20;75.50;;;;;;5091568;28;20298;-66
2021/03/20 03:05:27;;;;;;;8.67;5.40;;;3.20;75.50;;;;;;5091553;28;20101;-66
2021/03/20 03:08:15;;;;;;;9.55;6.53;;;3.10;75.30;;;;;;5090653;28;21086;-66
2021/03/20 03:10:49;;;;;;;8.13;6.20;;;3.20;75.30;;;;;;5091988;28;20051;-66
2021/03/20 03:13:22;;;;;;;8.23;5.87;;;3.20;75.30;;;;;;5090666;28;20338;-66
2021/03/20 03:15:58;;;;;;;8.97;6.10;;;3.20;75.20;;;;;;5091190;28;20325;-66
2021/03/20 03:18:29;;;;;;;9.57;6.53;;;3.20;75.00;;;;;;5091344;28;20367;-66
2021/03/20 03:20:58;;;;;;;11.17;7.17;;;3.20;74.90;;;;;;5091059;28;20332;-66
2021/03/20 03:23:28;;;;;;;10.87;7.23;;;3.20;75.00;;;;;;5091371;28;20347;-66
2021/03/20 03:26:02;;;;;;;11.30;7.47;;;3.30;74.90;;;;;;5090885;28;20393;-65
2021/03/20 03:28:29;;;;;;;11.87;6.97;;;3.30;74.80;;;;;;5090927;28;20302;-66
2021/03/20 03:31:02;;;;;;;8.50;5.87;;;3.30;74.70;;;;;;5091374;28;20806;-66
2021/03/20 03:33:46;;;;;;;7.40;5.80;;;3.30;74.60;;;;;;5091782;28;20286;-66
2021/03/20 03:36:15;;;;;;;7.77;5.77;;;3.30;74.70;;;;;;5089929;28;20347;-66
2021/03/20 03:38:55;;;;;;;6.97;4.80;;;3.20;74.80;;;;;;5090815;28;20294;-66
2021/03/20 03:41:29;;;;;;;8.13;5.00;;;3.20;75.00;;;;;;5090092;28;20300;-66
2021/03/20 03:43:55;;;;;;;;;;;3.20;75.00;;;;;;5091755;28;20310;-66
2021/03/20 03:46:25;;;;;;;6.10;4.77;;;3.10;75.00;;;;;;5090646;28;20426;-66
2021/03/20 03:48:53;;;;;;;7.43;5.33;;;3.10;75.10;;;;;;5089538;28;20413;-65
2021/03/20 03:51:19;;;;;;;6.33;4.80;;;3.10;75.00;;;;;;5090673;28;20301;-65
2021/03/20 03:53:45;;;;;;;8.67;5.23;;;3.10;75.10;;;;;;5091032;28;20302;-65
2021/03/20 03:56:45;;;;;;;6.03;4.37;;;3.00;74.90;;;;;;5089737;28;20352;-66
2021/03/20 03:59:16;;;;;;;7.17;5.10;;;3.00;75.10;;;;;;5090430;28;20313;-65
2021/03/20 04:02:31;;;;;;;11.60;5.63;;;3.00;75.10;;;;;;5090411;28;20351;-66
2021/03/20 04:05:10;;;;;;;6.80;4.87;;;3.00;75.10;;;;;;5090702;28;20298;-65
2021/03/20 04:08:07;;;;;;;7.17;5.50;;;3.00;75.20;;;;;;5090825;28;20298;-66
2021/03/20 04:10:36;;;;;;;6.43;4.90;;;3.20;75.00;;;;;;5090069;28;20639;-66
2021/03/20 04:13:25;;;;;;;9.33;6.13;;;3.20;74.70;;;;;;5089844;28;20298;-66
2021/03/20 04:16:06;;;;;;;5.77;4.60;;;3.30;74.40;;;;;;5089824;28;20355;-66
2021/03/20 04:18:56;;;;;;;8.40;5.25;;;3.30;74.30;;;;;;5089719;28;20384;-65
2021/03/20 04:21:25;;;;;;;8.47;5.70;;;3.30;74.10;;;;;;5090353;28;20524;-66
2021/03/20 04:24:04;;;;;;;7.20;4.90;;;3.30;74.20;;;;;;5089512;28;20306;-66
2021/03/20 04:26:50;;;;;;;8.07;6.50;;;3.30;74.20;;;;;;5090240;28;20341;-66
2021/03/20 04:29:34;;;;;;;7.60;5.40;;;3.30;74.20;;;;;;5089762;28;20314;-66
2021/03/20 04:32:08;;;;;;;7.23;5.17;;;3.20;74.30;;;;;;5089053;28;20378;-66
2021/03/20 04:34:48;;;;;;;8.07;5.77;;;3.20;74.50;;;;;;5090315;28;20290;-65
2021/03/20 04:37:21;;;;;;;6.03;5.43;;;3.20;74.50;;;;;;5089702;28;20801;-66
2021/03/20 04:39:53;;;;;;;7.70;5.97;;;3.10;74.70;;;;;;5088957;28;20639;-66
2021/03/20 04:42:33;;;;;;;8.55;6.38;;;3.10;74.90;;;;;;5089951;28;20402;-66
2021/03/20 04:45:31;;;;;;;6.83;5.90;;;3.00;75.00;;;;;;5089279;28;20074;-65
2021/03/20 04:48:01;;;;;;;7.47;5.60;;;3.00;75.10;;;;;;5089092;28;20809;-66
2021/03/20 04:50:28;;;;;;;7.70;6.27;;;2.90;75.30;;;;;;5089884;28;20318;-66
2021/03/20 04:52:57;;;;;;;8.47;6.63;;;2.90;75.20;;;;;;5088542;28;20343;-66
2021/03/20 04:55:23;;;;;;;9.10;6.47;;;2.90;75.10;;;;;;5089262;28;20674;-65
2021/03/20 04:57:54;;;;;;;8.67;5.47;;;2.90;75.30;;;;;;5089788;28;20389;-65
2021/03/20 05:00:49;;;;;;;8.05;5.93;;;2.90;75.30;;;;;;5088566;28;20300;-65
2021/03/20 05:03:26;;;;;;;7.53;5.77;;;2.90;75.00;;;;;;5088573;28;20524;-66
2021/03/20 05:06:12;;;;;;;6.23;5.13;;;2.80;75.10;;;;;;5088441;28;20377;-66
2021/03/20 05:08:59;;;;;;;7.77;5.30;;;2.80;74.90;;;;;;5089375;28;20313;-66
2021/03/20 05:11:46;;;;;;;8.03;5.87;;;2.90;74.90;;;;;;5089527;28;20302;-66
2021/03/20 05:14:17;;;;;;;6.83;5.83;;;2.80;74.70;;;;;;5088047;28;20301;-66
2021/03/20 05:16:50;;;;;;;8.35;5.53;;;2.80;74.90;;;;;;5089043;28;20377;-66
2021/03/20 05:19:18;;;;;;;8.03;6.17;;;2.80;75.10;;;;;;5089082;28;20095;-66
2021/03/20 05:21:45;;;;;;;6.37;5.60;;;2.70;75.20;;;;;;5088418;28;20982;-66
2021/03/20 05:24:20;;;;;;;9.23;5.00;;;2.70;75.60;;;;;;5088607;28;20290;-66
2021/03/20 05:26:47;;;;;;;8.77;5.90;;;2.70;75.30;;;;;;5088414;28;20331;-65
2021/03/20 05:29:13;;;;;;;6.53;5.13;;;2.80;75.20;;;;;;5088729;28;20325;-65
2021/03/20 05:31:39;;;;;;;7.90;5.27;;;2.90;75.00;;;;;;5089273;28;20663;-65
2021/03/20 05:34:13;;;;;;;7.83;5.27;;;3.00;74.40;;;;;;5087969;28;20056;-67
2021/03/20 05:36:39;;;;;;;7.33;5.43;;;3.10;73.80;;;;;;5088679;28;20066;-66
2021/03/20 05:39:05;;;;;;;6.90;5.30;;;3.20;73.40;;;;;;5088331;28;20671;-66
2021/03/20 05:41:49;;;;;;;8.07;5.43;;;3.30;73.10;;;;;;5088642;28;20181;-65
2021/03/20 05:44:31;;;;;;;7.07;5.03;;;3.40;72.80;;;;;;5088576;28;20458;-66
2021/03/20 05:47:04;;;;;;;7.57;4.80;;;3.50;72.30;;;;;;5088418;28;20786;-66
2021/03/20 05:49:54;;;;;;;7.23;4.87;;;3.60;72.10;;;;;;5087622;28;20338;-66
2021/03/20 05:52:41;;;;;;;7.13;5.47;;;3.70;71.70;;;;;;5088360;28;20291;-66
2021/03/20 05:55:30;;;;;;;6.73;5.07;;;3.80;71.30;;;;;;5088137;28;20297;-66
2021/03/20 05:58:22;;;;;;;4.57;4.10;;;3.80;71.10;;;;;;5088714;28;20325;-66
2021/03/20 06:01:06;;;;;;;7.07;4.45;;;3.90;70.90;;;;;;5088688;28;20632;-65
2021/03/20 06:04:05;;;;;;;6.03;4.20;;;4.00;70.50;;;;;;5087882;28;20454;-66
2021/03/20 06:07:08;;;;;;;7.20;4.70;;;4.00;70.00;;;;;;5088351;28;20356;-65
2021/03/20 06:10:00;;;;;;;6.03;4.60;;;4.10;69.50;;;;;;5087557;28;20324;-66
2021/03/20 06:13:03;;;;;;;5.87;5.30;;;4.10;69.40;;;;;;5088140;28;20294;-65
2021/03/20 06:16:00;;;;;;;7.33;4.50;;;4.10;69.50;;;;;;5088774;28;20770;-66
2021/03/20 06:18:38;;;;;;;6.33;4.97;;;4.20;69.90;;;;;;5088626;28;20301;-66
2021/03/20 06:21:15;;;;;;;8.17;4.77;;;4.20;69.50;;;;;;5088100;28;20294;-65
2021/03/20 06:24:18;;;;;;;7.53;5.13;;;4.20;69.80;;;;;;5087378;28;20290;-66
2021/03/20 06:26:47;;;;;;;5.73;4.70;;;4.20;69.20;;;;;;5087953;28;20685;-65
2021/03/20 06:29:23;;;;;;;6.40;4.53;;;4.20;69.60;;;;;;5087524;28;20647;-65
2021/03/20 06:31:55;;;;;;;7.67;4.40;;;4.30;69.00;;;;;;5087880;28;20340;-65
2021/03/20 06:34:27;;;;;;;6.13;4.17;;;4.30;69.10;;;;;;5089377;28;20425;-66
2021/03/20 06:37:04;;;;;;;8.77;4.63;;;4.30;68.70;;;;;;5092298;28;20326;-66
2021/03/20 06:39:34;;;;;;;8.20;4.90;;;4.30;68.50;;;;;;5092363;28;20109;-66
2021/03/20 06:42:07;;;;;;;7.13;4.83;;;4.30;68.40;;;;;;5092423;28;20302;-66
2021/03/20 06:44:43;;;;;;;7.17;5.00;;;4.40;68.20;;;;;;5091186;28;20386;-66
2021/03/20 06:47:23;;;;;;;5.87;4.33;;;4.30;67.90;;;;;;5091316;28;20859;-65
2021/03/20 06:50:17;;;;;;;5.70;4.37;;;4.40;67.80;;;;;;5091379;28;20370;-66
2021/03/20 06:52:48;;;;;;;7.20;4.77;;;4.40;68.00;;;;;;5091012;28;20305;-67
2021/03/20 06:55:24;;;;;;;7.73;4.70;;;4.40;68.40;;;;;;5092246;28;20714;-66
2021/03/20 06:57:50;;;;;;;6.77;5.27;;;4.40;68.00;;;;;;5091687;28;20294;-66
2021/03/20 07:00:31;;;;;;;5.70;4.23;;;4.50;68.30;;;;;;5090925;28;20312;-66
2021/03/20 07:03:04;;;;;;;5.13;4.43;;;4.50;68.00;;;;;;5091625;28;20532;-66
2021/03/20 07:05:54;;;;;;;7.40;5.07;;;4.50;68.20;;;;;;5091602;28;20418;-65
2021/03/20 07:08:42;;;;;;;6.50;4.87;;;4.60;68.20;;;;;;5091410;28;20303;-66
2021/03/20 07:11:32;;;;;;;5.20;4.33;;;4.70;68.10;;;;;;5091393;28;20305;-65
2021/03/20 07:14:02;;;;;;;6.27;4.43;;;4.80;67.70;;;;;;5090606;28;20305;-66
2021/03/20 07:16:30;;;;;;;6.20;4.60;;;4.90;68.00;;;;;;5092138;28;20298;-65
2021/03/20 07:19:15;;;;;;;6.73;5.40;;;4.90;67.90;;;;;;5091930;28;20298;-66
2021/03/20 07:21:46;;;;;;;6.43;5.17;;;5.00;67.80;;;;;;5091041;28;20310;-66
2021/03/20 07:24:30;;;;;;;9.67;5.27;;;5.10;67.80;;;;;;5091138;28;20282;-66
2021/03/20 07:26:58;;;;;;;7.43;5.23;;;5.10;67.70;;;;;;5090250;28;20294;-66
2021/03/20 07:29:58;;;;;;;6.17;4.67;;;5.20;67.50;;;;;;5091358;28;20313;-66
2021/03/20 07:32:24;;;;;;;8.03;4.80;;;5.30;66.60;;;;;;5090205;28;20309;-65
2021/03/20 07:34:50;;;;;;;8.33;4.90;;;5.40;67.00;;;;;;5090447;28;20290;-65
2021/03/20 07:37:19;;;;;;;7.47;4.30;;;5.40;66.60;;;;;;5091068;28;20473;-65
2021/03/20 07:39:48;;;;;;;7.77;5.10;;;5.50;66.30;;;;;;5086835;28;20687;-66
2021/03/20 07:42:33;;;;;;;4.90;4.30;;;5.60;66.30;;;;;;5070021;28;20803;-66
2021/03/20 07:45:01;;;;;;;6.20;4.90;;;5.70;65.70;;;;;;5069715;28;20295;-66
2021/03/20 07:47:35;;;;;;;7.97;4.67;;;5.70;66.20;;;;;;5069076;28;20299;-65
2021/03/20 07:50:18;;;;;;;6.80;5.13;;;5.70;65.90;;;;;;5070032;28;20314;-65
2021/03/20 07:53:02;;;;;;;6.67;4.43;;;5.80;65.30;;;;;;5067707;28;20795;-65
2021/03/20 07:55:31;;;;;;;5.43;4.20;;;5.80;65.10;;;;;;5067887;28;20295;-66
2021/03/20 07:58:00;;;;;;;7.80;4.80;;;5.90;65.60;;;;;;5069971;28;20838;-66
2021/03/20 08:00:34;;;;;;;5.37;4.43;;;5.90;65.40;;;;;;5062997;28;20322;-67
2021/03/20 08:03:19;;;;;;;6.83;4.93;;;6.00;65.20;;;;;;5072173;28;20779;-65
2021/03/20 08:05:45;;;;;;;7.17;4.60;;;6.00;66.20;;;;;;5069911;28;20363;-66
2021/03/20 08:08:14;;;;;;;7.50;5.13;;;6.10;65.40;;;;;;5068279;28;20320;-66
2021/03/20 08:10:44;;;;;;;5.90;5.00;;;6.30;65.20;;;;;;5069008;28;20489;-66
2021/03/20 08:13:13;;;;;;;7.97;5.17;;;6.40;64.80;;;;;;5069878;28;20799;-66
2021/03/20 08:15:45;;;;;;;7.20;5.10;;;6.50;64.60;;;;;;5068198;28;21134;-66
2021/03/20 08:18:27;;;;;;;5.65;4.65;;;6.50;64.20;;;;;;5067413;28;20689;-66
2021/03/20 08:21:15;;;;;;;6.50;5.83;;;6.50;64.30;;;;;;5067904;28;20052;-66
2021/03/20 08:24:08;;;;;;;6.50;5.40;;;6.60;64.80;;;;;;5068371;28;20307;-66
2021/03/20 08:27:01;;;;;;;6.90;5.10;;;6.90;64.20;;;;;;5068684;28;20299;-66
2021/03/20 08:29:44;;;;;;;7.03;5.73;;;7.10;63.80;;;;;;5066919;28;20363;-66
2021/03/20 08:32:47;;;;;;;7.00;4.93;;;7.40;63.30;;;;;;5067552;28;20330;-66
2021/03/20 08:35:34;;;;;;;6.70;5.33;;;7.50;62.90;;;;;;5067409;28;20297;-67
2021/03/20 08:38:19;;;;;;;8.17;5.80;;;7.50;63.00;;;;;;5068338;28;20291;-66
2021/03/20 08:40:57;;;;;;;6.37;5.27;;;7.40;63.10;;;;;;5069742;28;20655;-66
2021/03/20 08:43:31;;;;;;;6.43;5.40;;;7.40;63.40;;;;;;5072509;28;20306;-66
2021/03/20 08:46:02;;;;;;;7.20;5.30;;;7.30;63.80;;;;;;5071627;28;20290;-66
2021/03/20 08:48:44;;;;;;;7.10;5.73;;;7.40;64.10;;;;;;5069937;28;20315;-67
2021/03/20 08:51:33;;;;;;;;;;;7.40;63.80;;;;;;5069981;28;20510;-68
2021/03/20 08:54:08;;;;;;;6.63;5.23;;;7.40;63.60;;;;;;5071606;28;19928;-68
2021/03/20 08:57:11;;;;;;;6.73;5.20;;;7.40;64.60;;;;;;5072982;28;20294;-68
2021/03/20 08:59:49;;;;;;;8.17;6.00;;;7.50;64.30;;;;;;5070572;28;20787;-68
2021/03/20 09:02:30;;;;;;;10.07;5.20;;;7.70;64.00;;;;;;5072427;28;20302;-68
2021/03/20 09:05:08;;;;;;;5.63;4.50;;;7.80;63.60;;;;;;5071961;28;20303;-69
2021/03/20 09:07:41;;;;;;;6.33;5.23;;;7.90;63.40;;;;;;5072563;28;20348;-68
2021/03/20 09:10:16;;;;;;;7.00;5.43;;;8.00;63.20;;;;;;5072301;28;20315;-70
2021/03/20 09:12:48;;;;;;;7.03;5.37;;;8.00;63.10;;;;;;5071731;28;20295;-70
2021/03/20 09:15:21;;;;;;;6.70;5.30;;;8.00;63.20;;;;;;5072114;28;20306;-69
2021/03/20 09:17:48;;;;;;;7.17;6.20;;;8.00;63.00;;;;;;5071746;28;20301;-70
2021/03/20 09:20:40;;;;;;;9.10;6.60;;;8.10;62.90;;;;;;5071435;28;20374;-69
2021/03/20 09:23:15;;;;;;;8.60;5.63;;;8.20;62.90;;;;;;5072195;28;20290;-72
2021/03/20 09:25:42;;;;;;;7.23;5.67;;;8.10;62.90;;;;;;5072180;28;20322;-71
2021/03/20 09:28:27;;;;;;;8.93;5.57;;;8.10;62.90;;;;;;5071112;28;20337;-72
2021/03/20 09:30:59;;;;;;;7.80;6.60;;;8.20;63.10;;;;;;5072259;28;20637;-69
2021/03/20 09:33:25;;;;;;;8.57;5.77;;;8.30;63.20;;;;;;5071443;28;20295;-69
2021/03/20 09:35:57;;;;;;;7.30;5.17;;;8.40;63.10;;;;;;5071893;28;20302;-70
2021/03/20 09:38:43;;;;;;;6.40;5.55;;;8.40;63.00;;;;;;5072017;28;20044;-72
2021/03/20 09:41:15;;;;;;;5.67;4.60;;;8.40;62.60;;;;;;5071150;28;20457;-70
2021/03/20 09:44:07;;;;;;;6.32;4.78;;;8.40;62.80;;;;;;5072116;28;20369;-70
2021/03/20 09:46:35;;;;;;;5.82;4.70;;;8.40;63.00;;;;;;5071396;28;20497;-67
2021/03/20 09:49:24;;;;;;;6.80;4.90;;;8.50;63.20;;;;;;5070493;28;20563;-67
2021/03/20 09:54:29;;;;;;;6.83;4.97;;;8.80;63.00;;;;;;5070485;28;20759;-68
2021/03/20 09:57:27;;;;;;;8.50;6.33;;;8.80;62.90;;;;;;5068761;28;20067;-67
2021/03/20 09:59:53;;;;;;;11.03;6.07;;;8.80;63.00;;;;;;5070968;28;20650;-69
2021/03/20 10:02:18;;;;;;;6.87;6.17;;;8.90;63.10;;;;;;5070886;28;20291;-69
2021/03/20 10:05:03;;;;;;;6.93;5.87;;;8.90;63.00;;;;;;5070853;28;20663;-70
2021/03/20 10:07:32;;;;;;;6.63;5.77;;;9.00;62.90;;;;;;5069535;28;20097;-69
2021/03/20 10:10:10;;;;;;;8.73;6.47;;;9.20;63.20;;;;;;5070194;28;20417;-70
2021/03/20 10:12:42;;;;;;;7.83;6.47;;;9.30;62.40;;;;;;5071808;28;20298;-73
2021/03/20 10:15:18;;;;;;;9.60;7.17;;;9.20;62.50;;;;;;5070600;28;20775;-71
2021/03/20 10:18:00;;;;;;;8.90;6.30;;;9.10;62.50;;;;;;5071489;28;20830;-72
2021/03/20 10:20:41;;;;;;;10.50;6.30;;;9.20;63.10;;;;;;5071541;28;20290;-71
2021/03/20 10:23:31;;;;;;;9.27;7.10;;;9.30;63.30;;;;;;5070701;28;20426;-69
2021/03/20 10:26:00;;;;;;;7.70;6.90;;;9.40;62.90;;;;;;5070980;28;20760;-65
2021/03/20 10:28:31;;;;;;;7.80;7.00;;;9.50;62.80;;;;;;5071079;28;20049;-65
2021/03/20 10:30:59;;;;;;;7.77;6.87;;;9.70;62.10;;;;;;5070014;28;20052;-65
2021/03/20 10:33:36;;;;;;;10.13;7.00;;;9.70;62.20;;;;;;5066766;28;20051;-66
2021/03/20 10:36:26;;;;;;;8.13;6.60;;;9.70;62.10;;;;;;5078522;28;20059;-66
2021/03/20 10:38:51;;;;;;;7.30;5.47;;;9.70;61.90;;;;;;5087670;28;20098;-66
2021/03/20 10:41:17;;;;;;;8.63;6.63;;;9.60;62.50;;;;;;5087464;28;20048;-66
2021/03/20 10:43:46;;;;;;;6.70;5.90;;;9.60;62.70;;;;;;5087325;28;20055;-66
2021/03/20 10:46:23;;;;;;;8.20;5.93;;;9.60;62.50;;;;;;5087501;28;20052;-65
2021/03/20 10:48:51;;;;;;;9.53;6.50;;;9.60;62.80;;;;;;5087529;28;20051;-65
2021/03/20 10:51:18;;;;;;;7.70;5.83;;;9.60;62.80;;;;;;5086731;28;20442;-65
2021/03/20 10:54:00;;;;;;;7.17;6.47;;;9.70;63.10;;;;;;5087920;28;20089;-65
2021/03/20 10:56:39;;;;;;;7.70;6.23;;;9.70;62.30;;;;;;5087373;28;20135;-66
2021/03/20 10:59:26;;;;;;;6.90;6.07;;;9.70;61.80;;;;;;5086892;28;20294;-66
2021/03/20 11:01:52;;;;;;;7.33;6.10;;;9.60;61.60;;;;;;5087547;28;20389;-70
2021/03/20 11:04:33;;;;;;;7.03;6.10;;;9.40;62.30;;;;;;5087146;28;20063;-69
2021/03/20 11:07:02;;;;;;;6.93;5.80;;;9.40;62.40;;;;;;5087960;28;20040;-68
2021/03/20 11:09:32;;;;;;;8.93;6.93;;;9.30;62.60;;;;;;5087839;28;20076;-70
2021/03/20 11:12:09;;;;;;;6.80;6.10;;;9.30;62.90;;;;;;5087005;28;20367;-69
2021/03/20 11:15:05;;;;;;;7.10;6.17;;;9.30;63.00;;;;;;5087981;28;20962;-70
2021/03/20 11:17:33;;;;;;;7.03;6.27;;;9.20;63.40;;;;;;5087297;28;20294;-71
2021/03/20 11:20:22;;;;;;;6.90;6.13;;;9.20;63.50;;;;;;5086707;28;20413;-69
2021/03/20 11:22:48;;;;;;;8.07;6.43;;;9.30;63.30;;;;;;5077406;28;20291;-68
2021/03/20 11:25:27;;;;;;;8.07;6.03;;;9.40;63.50;;;;;;5070359;28;20310;-68
2021/03/20 11:28:13;;;;;;;7.40;5.67;;;9.40;63.20;;;;;;5070786;28;20299;-67
2021/03/20 11:30:45;;;;;;;8.07;6.17;;;9.50;62.80;;;;;;5070599;28;20306;-70
2021/03/20 11:33:16;;;;;;;10.68;6.22;;;9.50;63.00;;;;;;5069734;28;20299;-68
2021/03/20 11:35:45;;;;;;;8.43;6.30;;;9.50;63.00;;;;;;5070629;28;20045;-69
2021/03/20 11:38:14;;;;;;;9.20;6.20;;;9.50;63.10;;;;;;5070243;28;20298;-68
2021/03/20 11:40:45;;;;;;;8.60;6.60;;;9.50;63.30;;;;;;5070372;28;20295;-69
2021/03/20 11:43:25;;;;;;;9.18;5.82;;;9.50;63.40;;;;;;5072680;28;20305;-69
2021/03/20 11:45:54;;;;;;;8.20;5.77;;;9.60;63.70;;;;;;5072727;28;20587;-69
2021/03/20 11:48:43;;;;;;;9.77;6.17;;;9.60;63.50;;;;;;5072134;28;20303;-68
2021/03/20 11:51:22;;;;;;;9.23;5.50;;;9.60;63.70;;;;;;5073086;28;20287;-69
2021/03/20 11:53:55;;;;;;;6.67;5.63;;;9.60;63.80;;;;;;5072063;28;20772;-69
2021/03/20 11:56:39;;;;;;;10.00;5.57;;;9.70;63.80;;;;;;5072653;28;20333;-69
2021/03/20 11:59:36;;;;;;;7.77;6.20;;;9.80;63.20;;;;;;5073346;28;20701;-68
2021/03/20 12:02:03;;;;;;;9.13;5.50;;;9.80;63.20;;;;;;5072457;28;20303;-69
2021/03/20 12:04:32;;;;;;;8.10;5.60;;;9.80;63.10;;;;;;5073322;28;20298;-68
2021/03/20 12:07:19;;;;;;;6.57;5.43;;;9.80;63.00;;;;;;5073419;28;20973;-69
2021/03/20 12:09:45;;;;;;;10.07;6.13;;;9.80;62.50;;;;;;5072456;28;20045;-68
2021/03/20 12:12:11;;;;;;;9.67;5.13;;;9.90;62.90;;;;;;5073109;28;20481;-68
2021/03/20 12:14:48;;;;;;;7.20;5.57;;;9.90;62.70;;;;;;5073258;28;20348;-69
2021/03/20 12:17:22;;;;;;;10.70;5.30;;;9.90;62.60;;;;;;5072964;28;20052;-68
2021/03/20 12:19:55;;;;;;;6.93;5.23;;;9.90;62.40;;;;;;5072964;28;20413;-69
2021/03/20 12:22:40;;;;;;;7.53;5.47;;;9.90;62.60;;;;;;5072427;28;20075;-69
2021/03/20 12:25:17;;;;;;;7.17;4.93;;;9.80;62.50;;;;;;5073200;28;20052;-68
2021/03/20 12:27:43;;;;;;;8.53;5.60;;;9.80;62.70;;;;;;5072984;28;20375;-68
2021/03/20 12:30:22;;;;;;;7.40;5.40;;;9.70;62.90;;;;;;5072120;28;20395;-68
2021/03/20 12:32:54;;;;;;;10.17;5.77;;;9.60;62.90;;;;;;5072513;28;20071;-68
2021/03/20 12:35:19;;;;;;;8.17;5.20;;;9.50;63.40;;;;;;5072657;28;20310;-68
2021/03/20 12:37:47;;;;;;;9.33;5.80;;;9.40;64.10;;;;;;5071889;28;20302;-69
2021/03/20 12:40:18;;;;;;;8.87;6.40;;;9.30;64.30;;;;;;5072668;28;20428;-69
2021/03/20 12:42:44;;;;;;;8.17;5.43;;;9.30;64.40;;;;;;5072488;28;20294;-69
2021/03/20 12:45:16;;;;;;;9.00;5.97;;;9.20;64.90;;;;;;5071872;28;20306;-69
2021/03/20 12:47:41;;;;;;;20.50;6.50;;;9.30;65.10;;;;;;5072315;28;20098;-70
2021/03/20 12:50:07;;;;;;;10.53;5.40;;;9.30;65.10;;;;;;5070933;28;20323;-69
2021/03/20 12:52:35;;;;;;;11.53;10.17;;;9.20;65.20;;;;;;5072066;28;20067;-68
2021/03/20 12:55:01;;;;;;;6.93;5.40;;;9.20;65.60;;;;;;5072033;28;20347;-68
2021/03/20 12:57:33;;;;;;;8.47;5.50;;;9.20;65.80;;;;;;5071731;28;20298;-69
2021/03/20 12:59:59;;;;;;;;;;;9.30;66.20;;;;;;5072080;28;20841;-68
2021/03/20 13:02:25;;;;;;;8.53;5.27;;;9.30;66.70;;;;;;5071892;28;19921;-69
2021/03/20 13:04:51;;;;;;;9.13;4.93;;;9.30;66.50;;;;;;5071277;28;20447;-69
2021/03/20 13:07:19;;;;;;;8.67;5.00;;;9.30;66.60;;;;;;5072209;28;20052;-69
2021/03/20 13:09:44;;;;;;;8.17;4.67;;;9.30;66.70;;;;;;5071898;28;20334;-69
2021/03/20 13:12:12;;;;;;;9.17;5.90;;;9.30;67.00;;;;;;5070927;28;20301;-68
2021/03/20 13:14:39;;;;;;;7.27;5.10;;;9.40;67.00;;;;;;5072189;28;20106;-68
2021/03/20 13:17:06;;;;;;;9.73;4.73;;;9.40;67.10;;;;;;5071718;28;20826;-69
2021/03/20 13:19:32;;;;;;;10.03;4.20;;;9.40;67.50;;;;;;5070954;28;20306;-68
2021/03/20 13:21:58;;;;;;;7.23;4.03;;;9.30;67.70;;;;;;5071491;28;20291;-68
2021/03/20 13:24:24;;;;;;;7.93;5.03;;;9.30;67.80;;;;;;5071644;28;20051;-67
2021/03/20 13:26:50;;;;;;;6.83;4.53;;;9.30;67.90;;;;;;5070807;28;20775;-69
2021/03/20 13:29:16;;;;;;;9.00;4.87;;;9.20;68.30;;;;;;5071388;28;20072;-68
2021/03/20 13:31:42;;;;;;;9.20;5.53;;;9.10;68.90;;;;;;5071181;28;20075;-68
2021/03/20 13:34:08;;;;;;;7.47;4.83;;;9.00;69.60;;;;;;5070289;28;20051;-68
2021/03/20 13:36:34;;;;;;;11.97;5.77;;;8.80;70.30;;;;;;5071703;28;20056;-68
2021/03/20 13:39:01;;;;;;;6.93;5.37;;;8.70;71.10;;;;;;5071529;28;20291;-68
2021/03/20 13:41:27;;;;;;;6.50;5.07;;;8.60;71.60;;;;;;5070841;28;20298;-67
2021/03/20 13:43:53;;;;;;;6.90;5.00;;;8.60;72.60;;;;;;5070710;28;20306;-68